createdAt,value
2019-01-13T00:01:53.922Z,91.10
2019-01-13T00:04:19.969Z,91.10
2019-01-13T00:06:45.992Z,91.10
2019-01-13T00:09:12.125Z,91.20
2019-01-13T00:11:38.150Z,91.30
2019-01-13T00:14:04.195Z,91.20
2019-01-13T00:16:30.249Z,91.10
2019-01-13T00:18:56.304Z,91.00
2019-01-13T00:21:22.319Z,90.90
2019-01-13T00:23:48.368Z,91.00
2019-01-13T00:26:14.403Z,91.00
2019-01-13T00:28:40.442Z,90.90
2019-01-13T00:31:06.478Z,90.70
2019-01-13T00:33:32.497Z,90.60
2019-01-13T00:35:58.527Z,90.50
2019-01-13T00:38:24.543Z,90.50
2019-01-13T00:40:50.588Z,90.90
2019-01-13T00:43:16.595Z,90.70
2019-01-13T00:45:42.654Z,90.70
2019-01-13T00:48:08.671Z,90.50
2019-01-13T00:50:34.712Z,90.40
2019-01-13T00:53:00.763Z,90.50
2019-01-13T00:55:26.791Z,90.60
2019-01-13T00:57:52.807Z,90.70
2019-01-13T01:00:26.752Z,90.70
2019-01-13T01:02:51.066Z,90.70
2019-01-13T01:05:17.128Z,90.60
2019-01-13T01:07:43.174Z,90.60
2019-01-13T01:10:31.010Z,90.60
2019-01-13T01:12:57.095Z,90.40
2019-01-13T01:15:23.159Z,90.20
2019-01-13T01:17:49.169Z,90.20
2019-01-13T01:20:15.696Z,90.20
2019-01-13T01:22:41.720Z,90.00
2019-01-13T01:25:09.060Z,89.90
2019-01-13T01:30:09.396Z,89.80
2019-01-13T01:32:35.419Z,90.00
2019-01-13T01:35:01.470Z,89.90
2019-01-13T01:37:27.488Z,90.30
2019-01-13T01:39:53.514Z,90.00
2019-01-13T01:42:19.563Z,90.10
2019-01-13T01:44:45.572Z,90.10
2019-01-13T01:47:11.584Z,90.10
2019-01-13T01:49:37.651Z,90.10
2019-01-13T01:52:03.768Z,90.20
2019-01-13T01:54:29.796Z,90.50
2019-01-13T01:56:55.837Z,90.30
2019-01-13T01:59:21.908Z,90.40
2019-01-13T02:01:48.023Z,90.20
2019-01-13T02:04:14.053Z,90.40
2019-01-13T02:06:40.084Z,90.20
2019-01-13T02:09:06.215Z,90.30
2019-01-13T02:11:32.273Z,90.40
2019-01-13T02:13:58.295Z,90.40
2019-01-13T02:16:44.216Z,90.40
2019-01-13T02:19:10.233Z,90.40
2019-01-13T02:21:36.268Z,90.40
2019-01-13T02:24:02.302Z,90.40
2019-01-13T02:26:28.333Z,90.50
2019-01-13T02:28:54.352Z,90.40
2019-01-13T02:31:20.404Z,90.40
2019-01-13T02:33:46.447Z,90.30
2019-01-13T02:36:12.481Z,90.40
2019-01-13T02:38:38.523Z,90.50
2019-01-13T02:41:04.583Z,90.70
2019-01-13T02:43:30.611Z,90.80
2019-01-13T02:45:56.620Z,90.90
2019-01-13T02:48:22.670Z,91.10
2019-01-13T02:50:48.707Z,90.90
2019-01-13T02:53:14.779Z,91.30
2019-01-13T02:55:40.800Z,91.10
2019-01-13T02:58:06.833Z,91.00
2019-01-13T03:00:32.856Z,90.80
2019-01-13T03:02:58.902Z,90.80
2019-01-13T03:05:24.927Z,90.70
2019-01-13T03:07:50.976Z,90.60
2019-01-13T03:10:19.948Z,90.30
2019-01-13T03:12:45.977Z,90.50
2019-01-13T03:15:33.781Z,90.40
2019-01-13T03:17:59.815Z,90.40
2019-01-13T03:20:25.827Z,90.30
2019-01-13T03:22:51.849Z,90.30
2019-01-13T03:25:18.886Z,90.20
2019-01-13T03:27:44.888Z,90.00
2019-01-13T03:30:16.491Z,90.10
2019-01-13T03:32:42.496Z,90.10
2019-01-13T03:35:08.548Z,90.10
2019-01-13T03:37:34.585Z,90.20
2019-01-13T03:40:00.608Z,90.00
2019-01-13T03:42:26.644Z,89.70
2019-01-13T03:44:52.665Z,90.00
2019-01-13T03:47:18.817Z,90.20
2019-01-13T03:49:44.831Z,90.10
2019-01-13T03:52:10.846Z,89.80
2019-01-13T03:54:36.882Z,89.60
2019-01-13T03:57:02.887Z,89.70
2019-01-13T03:59:28.924Z,89.50
2019-01-13T04:01:54.967Z,89.50
2019-01-13T04:04:20.995Z,89.10
2019-01-13T04:06:47.031Z,89.60
2019-01-13T04:09:13.064Z,89.30
2019-01-13T04:11:39.083Z,89.10
2019-01-13T04:14:05.097Z,89.10
2019-01-13T04:16:31.148Z,89.10
2019-01-13T04:18:57.169Z,89.50
2019-01-13T04:21:23.185Z,89.00
2019-01-13T04:23:49.215Z,89.10
2019-01-13T04:26:15.253Z,89.40
2019-01-13T04:28:41.270Z,89.20
2019-01-13T04:31:07.304Z,89.70
2019-01-13T04:33:33.316Z,89.50
2019-01-13T04:35:59.360Z,89.10
2019-01-13T04:38:25.391Z,89.10
2019-01-13T04:40:51.423Z,89.30
2019-01-13T04:43:17.461Z,89.60
2019-01-13T04:45:43.496Z,89.70
2019-01-13T04:48:09.529Z,89.70
2019-01-13T04:50:35.584Z,89.40
2019-01-13T04:53:01.628Z,89.30
2019-01-13T04:55:27.664Z,89.40
2019-01-13T04:57:54.757Z,89.40
2019-01-13T05:00:21.579Z,89.40
2019-01-13T05:02:47.607Z,89.60
2019-01-13T05:05:13.619Z,89.70
2019-01-13T05:07:39.652Z,90.00
2019-01-13T05:10:19.834Z,90.00
2019-01-13T05:12:45.870Z,90.10
2019-01-13T05:15:11.999Z,90.50
2019-01-13T05:17:38.030Z,90.80
2019-01-13T05:20:07.558Z,91.00
2019-01-13T05:22:33.568Z,91.00
2019-01-13T05:24:59.596Z,91.10
2019-01-13T05:27:25.612Z,91.10
2019-01-13T05:29:51.648Z,90.90
2019-01-13T05:32:17.675Z,90.80
2019-01-13T05:34:43.691Z,90.80
2019-01-13T05:37:09.723Z,91.00
2019-01-13T05:39:35.736Z,91.30
2019-01-13T05:42:01.767Z,91.10
2019-01-13T05:44:27.924Z,91.00
2019-01-13T05:46:53.928Z,90.90
2019-01-13T05:49:19.963Z,90.80
2019-01-13T05:51:45.983Z,90.90
2019-01-13T05:54:12.015Z,91.00
2019-01-13T05:56:38.049Z,91.10
2019-01-13T05:59:04.089Z,90.90
2019-01-13T06:01:30.142Z,90.90
2019-01-13T06:03:56.175Z,90.70
2019-01-13T06:06:22.191Z,90.80
2019-01-13T06:08:48.224Z,90.80
2019-01-13T06:11:14.269Z,91.00
2019-01-13T06:13:40.278Z,91.00
2019-01-13T06:16:06.288Z,90.90
2019-01-13T06:18:32.330Z,90.90
2019-01-13T06:20:58.360Z,90.80
2019-01-13T06:23:24.383Z,91.00
2019-01-13T06:25:50.412Z,90.80
2019-01-13T06:28:16.424Z,90.90
2019-01-13T06:30:42.462Z,90.90
2019-01-13T06:33:08.551Z,91.00
2019-01-13T06:35:34.568Z,91.10
2019-01-13T06:38:00.611Z,91.00
2019-01-13T06:40:26.636Z,90.90
2019-01-13T06:42:52.675Z,91.00
2019-01-13T06:45:20.393Z,91.00
2019-01-13T06:47:46.406Z,90.80
2019-01-13T06:50:13.461Z,90.90
2019-01-13T06:52:39.496Z,91.00
2019-01-13T06:55:06.412Z,91.00
2019-01-13T06:57:32.556Z,91.10
2019-01-13T06:59:58.564Z,91.10
2019-01-13T07:02:24.616Z,91.10
2019-01-13T07:04:50.723Z,91.20
2019-01-13T07:07:16.732Z,91.20
2019-01-13T07:09:42.770Z,91.40
2019-01-13T07:12:08.783Z,91.70
2019-01-13T07:14:34.912Z,91.60
2019-01-13T07:17:01.347Z,91.80
2019-01-13T07:19:27.352Z,91.80
2019-01-13T07:21:53.482Z,91.90
2019-01-13T07:24:19.620Z,91.90
2019-01-13T07:26:45.631Z,91.80
2019-01-13T07:29:11.687Z,91.70
2019-01-13T07:31:37.700Z,92.00
2019-01-13T07:34:03.800Z,91.70
2019-01-13T07:36:29.815Z,91.70
2019-01-13T07:38:55.845Z,91.70
2019-01-13T07:41:21.851Z,91.60
2019-01-13T07:43:47.975Z,91.50
2019-01-13T07:46:14.019Z,91.80
2019-01-13T07:48:40.048Z,91.80
2019-01-13T07:51:06.080Z,91.90
2019-01-13T07:53:32.111Z,91.60
2019-01-13T07:55:58.142Z,91.70
2019-01-13T07:58:24.172Z,91.70
2019-01-13T08:00:50.188Z,91.70
2019-01-13T08:03:16.271Z,91.70
2019-01-13T08:05:42.283Z,91.60
2019-01-13T08:08:08.380Z,91.70
2019-01-13T08:10:34.410Z,91.80
2019-01-13T08:13:00.425Z,91.70
2019-01-13T08:15:26.569Z,91.60
2019-01-13T08:17:52.597Z,91.60
2019-01-13T08:20:21.133Z,91.60
2019-01-13T08:22:47.168Z,91.50
2019-01-13T08:25:13.180Z,91.30
2019-01-13T08:27:39.262Z,91.50
2019-01-13T08:30:09.330Z,91.60
2019-01-13T08:32:35.468Z,91.70
2019-01-13T08:35:01.960Z,91.50
2019-01-13T08:37:27.983Z,91.70
2019-01-13T08:39:54.243Z,91.80
2019-01-13T08:42:20.279Z,92.00
2019-01-13T08:44:46.291Z,91.80
2019-01-13T08:47:12.361Z,91.60
2019-01-13T08:49:38.417Z,91.80
2019-01-13T08:52:04.451Z,91.80
2019-01-13T08:54:30.564Z,91.90
2019-01-13T08:56:56.604Z,92.00
2019-01-13T08:59:22.639Z,91.90
2019-01-13T09:01:48.660Z,92.10
2019-01-13T09:04:16.973Z,92.30
2019-01-13T09:06:43.048Z,92.30
2019-01-13T09:09:09.090Z,92.20
2019-01-13T09:11:35.520Z,92.40
2019-01-13T09:14:01.552Z,92.20
2019-01-13T09:16:27.571Z,92.30
2019-01-13T09:18:53.579Z,92.20
2019-01-13T09:21:19.687Z,92.30
2019-01-13T09:23:45.715Z,92.20
2019-01-13T09:26:11.716Z,92.10
2019-01-13T09:28:37.851Z,92.00
2019-01-13T09:31:03.858Z,91.80
2019-01-13T09:33:29.891Z,91.90
2019-01-13T09:35:55.912Z,91.70
2019-01-13T09:38:21.932Z,91.60
2019-01-13T09:40:47.971Z,91.70
2019-01-13T09:43:14.004Z,91.60
2019-01-13T09:45:40.035Z,91.70
2019-01-13T09:48:06.087Z,91.70
2019-01-13T09:50:32.160Z,91.70
2019-01-13T09:52:58.179Z,91.70
2019-01-13T09:55:24.262Z,91.70
2019-01-13T09:57:50.284Z,91.60
2019-01-13T10:00:25.230Z,91.60
2019-01-13T10:02:50.880Z,91.60
2019-01-13T10:05:17.071Z,91.50
2019-01-13T10:07:44.240Z,91.50
2019-01-13T10:10:11.255Z,91.70
2019-01-13T10:12:37.295Z,91.90
2019-01-13T10:15:11.262Z,91.50
2019-01-13T10:17:37.295Z,91.60
2019-01-13T10:20:06.952Z,92.00
2019-01-13T10:22:33.080Z,91.80
2019-01-13T10:24:59.090Z,91.90
2019-01-13T10:27:25.245Z,92.00
2019-01-13T10:29:52.378Z,92.00
2019-01-13T10:32:18.394Z,91.80
2019-01-13T10:34:44.415Z,91.90
2019-01-13T10:37:10.428Z,92.40
2019-01-13T10:39:36.463Z,92.30
2019-01-13T10:42:02.547Z,92.30
2019-01-13T10:44:28.574Z,92.30
2019-01-13T10:46:54.607Z,92.80
2019-01-13T10:49:20.643Z,92.50
2019-01-13T10:51:46.749Z,92.40
2019-01-13T10:54:12.760Z,92.20
2019-01-13T10:56:38.791Z,92.20
2019-01-13T10:59:04.803Z,91.90
2019-01-13T11:01:30.832Z,92.00
2019-01-13T11:03:56.969Z,91.80
2019-01-13T11:06:23.157Z,91.60
2019-01-13T11:08:49.196Z,91.50
2019-01-13T11:11:15.209Z,91.70
2019-01-13T11:13:42.287Z,91.70
2019-01-13T11:16:08.320Z,92.10
2019-01-13T11:18:34.328Z,91.90
2019-01-13T11:21:00.360Z,92.30
2019-01-13T11:23:32.488Z,92.10
2019-01-13T11:25:58.532Z,92.40
2019-01-13T11:28:24.545Z,92.20
2019-01-13T11:30:50.576Z,92.10
2019-01-13T11:33:16.692Z,92.10
2019-01-13T11:35:42.703Z,92.30
2019-01-13T11:38:08.739Z,92.10
2019-01-13T11:40:34.757Z,92.00
2019-01-13T11:43:00.841Z,91.80
2019-01-13T11:45:26.923Z,91.60
2019-01-13T11:47:52.935Z,91.50
2019-01-13T11:50:20.779Z,91.60
2019-01-13T11:52:46.815Z,91.90
2019-01-13T11:55:14.651Z,91.50
2019-01-13T11:57:40.663Z,91.50
2019-01-13T12:00:16.123Z,91.30
2019-01-13T12:02:42.133Z,91.20
2019-01-13T12:05:08.476Z,90.90
2019-01-13T12:07:34.499Z,91.00
2019-01-13T12:10:00.556Z,91.20
2019-01-13T12:12:26.588Z,90.90
2019-01-13T12:14:52.620Z,91.00
2019-01-13T12:17:18.636Z,90.90
2019-01-13T12:19:44.676Z,91.00
2019-01-13T12:22:10.703Z,90.90
2019-01-13T12:24:36.727Z,90.80
2019-01-13T12:27:02.760Z,90.90
2019-01-13T12:29:28.767Z,90.90
2019-01-13T12:31:54.808Z,90.60
2019-01-13T12:34:20.949Z,90.80
2019-01-13T12:36:46.964Z,90.90
2019-01-13T12:39:13.419Z,90.90
2019-01-13T12:41:39.465Z,91.10
2019-01-13T12:44:05.517Z,91.10
2019-01-13T12:46:31.537Z,90.90
2019-01-13T12:48:57.600Z,90.70
2019-01-13T12:51:23.762Z,90.30
2019-01-13T12:53:49.835Z,90.30
2019-01-13T12:56:15.856Z,90.30
2019-01-13T12:58:41.870Z,90.10
2019-01-13T13:01:07.954Z,89.80
2019-01-13T13:03:33.963Z,90.00
2019-01-13T13:06:00.150Z,89.90
2019-01-13T13:08:26.201Z,90.00
2019-01-13T13:10:52.248Z,90.00
2019-01-13T13:13:18.337Z,89.80
2019-01-13T13:15:44.395Z,89.30
2019-01-13T13:18:10.433Z,89.10
2019-01-13T13:20:36.482Z,89.50
2019-01-13T13:23:04.337Z,89.80
2019-01-13T13:25:32.052Z,89.80
2019-01-13T13:27:58.402Z,89.90
2019-01-13T13:30:25.786Z,89.50
2019-01-13T13:32:51.960Z,89.60
2019-01-13T13:35:18.113Z,89.80
2019-01-13T13:37:44.135Z,89.60
2019-01-13T13:40:13.328Z,89.70
2019-01-13T13:42:39.416Z,90.00
2019-01-13T13:45:05.641Z,89.70
2019-01-13T13:47:31.680Z,89.70
2019-01-13T13:49:57.901Z,89.50
2019-01-13T13:52:23.960Z,89.10
2019-01-13T13:54:50.016Z,89.70
2019-01-13T13:57:16.235Z,89.90
2019-01-13T13:59:42.233Z,89.40
2019-01-13T14:02:08.391Z,89.40
2019-01-13T14:04:34.534Z,89.30
2019-01-13T14:07:00.549Z,89.60
2019-01-13T14:09:26.593Z,89.70
2019-01-13T14:11:52.652Z,90.50
2019-01-13T14:14:18.698Z,90.80
2019-01-13T14:16:44.743Z,91.10
2019-01-13T14:19:17.223Z,91.30
2019-01-13T14:22:59.889Z,91.60
2019-01-13T14:28:12.632Z,92.10
2019-01-13T14:33:52.883Z,92.40
2019-01-13T14:36:16.042Z,92.40
2019-01-13T14:40:57.909Z,92.00
2019-01-13T14:43:24.124Z,92.50
2019-01-13T14:45:50.176Z,92.30
2019-01-13T14:48:16.271Z,92.40
2019-01-13T14:50:42.324Z,92.40
2019-01-13T14:53:08.335Z,93.00
2019-01-13T14:55:34.420Z,92.80
2019-01-13T14:58:00.436Z,92.70
2019-01-13T15:00:29.522Z,92.70
2019-01-13T15:02:56.187Z,92.60
2019-01-13T15:05:49.888Z,92.10
2019-01-13T15:08:16.029Z,92.20
2019-01-13T15:10:42.056Z,92.10
2019-01-13T15:13:08.080Z,92.10
2019-01-13T15:15:34.089Z,92.20
2019-01-13T15:18:00.128Z,92.00
2019-01-13T15:20:26.140Z,92.00
2019-01-13T15:22:52.304Z,92.20
2019-01-13T15:25:26.220Z,92.30
2019-01-13T15:27:52.248Z,93.00
2019-01-13T15:30:30.214Z,92.90
2019-01-13T15:32:56.261Z,93.10
2019-01-13T15:35:23.344Z,93.10
2019-01-13T15:37:49.360Z,93.00
2019-01-13T15:40:19.588Z,93.00
2019-01-13T15:42:45.733Z,93.10
2019-01-13T15:45:13.180Z,92.90
2019-01-13T15:47:39.192Z,92.80
2019-01-13T15:50:08.732Z,92.70
2019-01-13T15:52:35.968Z,92.80
2019-01-13T15:55:03.624Z,92.70
2019-01-13T15:57:33.831Z,92.50
2019-01-13T15:59:59.867Z,92.70
2019-01-13T16:02:26.936Z,92.70
2019-01-13T16:04:52.968Z,93.00
2019-01-13T16:07:22.640Z,93.00
2019-01-13T16:09:48.671Z,93.20
2019-01-13T16:12:14.686Z,93.20
2019-01-13T16:14:40.808Z,93.30
2019-01-13T16:17:06.851Z,93.40
2019-01-13T16:19:32.888Z,93.60
2019-01-13T16:21:59.031Z,93.60
2019-01-13T16:24:25.113Z,93.50
2019-01-13T16:26:51.337Z,93.60
2019-01-13T16:29:24.410Z,93.70
2019-01-13T16:32:14.448Z,94.30
2019-01-13T16:34:42.827Z,93.70
2019-01-13T16:37:17.826Z,93.70
2019-01-13T16:39:44.041Z,93.60
2019-01-13T16:42:26.083Z,93.50
2019-01-13T16:44:52.757Z,93.30
2019-01-13T16:47:24.410Z,93.50
2019-01-13T16:49:50.604Z,93.40
2019-01-13T16:52:16.849Z,93.30
2019-01-13T16:54:43.111Z,93.30
2019-01-13T16:57:09.281Z,93.50
2019-01-13T16:59:35.420Z,93.60
2019-01-13T17:02:04.213Z,93.50
2019-01-13T17:04:30.436Z,93.60
2019-01-13T17:06:56.442Z,93.50
2019-01-13T17:09:22.455Z,93.60
2019-01-13T17:11:48.569Z,93.50
2019-01-13T17:14:14.585Z,94.10
2019-01-13T17:16:40.620Z,93.80
2019-01-13T17:19:06.636Z,93.70
2019-01-13T17:21:32.668Z,93.80
2019-01-13T17:23:58.704Z,93.80
2019-01-13T17:26:24.724Z,93.90
2019-01-13T17:28:50.760Z,94.00
2019-01-13T17:31:16.885Z,93.90
2019-01-13T17:33:42.923Z,94.10
2019-01-13T17:36:08.948Z,94.10
2019-01-13T17:38:34.985Z,94.60
2019-01-13T17:41:01.018Z,94.60
2019-01-13T17:43:27.160Z,94.40
2019-01-13T17:46:10.001Z,94.30
2019-01-13T17:48:36.039Z,94.50
2019-01-13T17:51:02.087Z,94.50
2019-01-13T17:53:28.106Z,94.40
2019-01-13T17:55:54.158Z,94.60
2019-01-13T17:58:20.182Z,94.50
2019-01-13T18:00:49.472Z,94.20
2019-01-13T18:03:19.892Z,94.40
2019-01-13T18:05:46.159Z,94.30
2019-01-13T18:08:12.737Z,94.40
2019-01-13T18:10:38.939Z,94.30
2019-01-13T18:13:05.052Z,94.10
2019-01-13T18:15:31.545Z,94.20
2019-01-13T18:17:57.874Z,94.10
2019-01-13T18:20:24.020Z,94.30
2019-01-13T18:22:50.142Z,94.10
2019-01-13T18:25:16.152Z,94.20
2019-01-13T18:27:42.220Z,94.10
2019-01-13T18:30:18.028Z,94.20
2019-01-13T18:32:44.072Z,94.30
2019-01-13T18:35:12.740Z,94.00
2019-01-13T18:37:38.750Z,94.20
2019-01-13T18:40:13.701Z,94.40
2019-01-13T18:42:42.210Z,94.50
2019-01-13T18:45:09.063Z,94.00
2019-01-13T18:47:35.093Z,94.00
2019-01-13T18:50:01.763Z,93.90
2019-01-13T18:52:27.869Z,93.70
2019-01-13T18:54:55.023Z,93.80
2019-01-13T18:57:21.230Z,93.60
2019-01-13T18:59:47.275Z,93.50
2019-01-13T19:02:15.364Z,93.10
2019-01-13T19:04:41.407Z,93.30
2019-01-13T19:07:08.967Z,93.10
2019-01-13T19:09:35.003Z,93.10
2019-01-13T19:12:01.010Z,93.10
2019-01-13T19:14:30.260Z,93.20
2019-01-13T19:16:56.492Z,93.00
2019-01-13T19:19:23.566Z,93.00
2019-01-13T19:21:49.816Z,92.80
2019-01-13T19:24:15.823Z,92.80
2019-01-13T19:26:41.860Z,92.80
2019-01-13T19:29:07.871Z,93.00
2019-01-13T19:31:34.011Z,93.20
2019-01-13T19:34:00.623Z,93.70
2019-01-13T19:36:27.279Z,93.90
2019-01-13T19:38:53.629Z,93.90
2019-01-13T19:41:20.088Z,93.90
2019-01-13T19:43:46.373Z,94.10
2019-01-13T19:46:12.868Z,93.70
2019-01-13T19:48:39.418Z,93.30
2019-01-13T19:51:05.719Z,93.30
2019-01-13T19:53:31.819Z,93.20
2019-01-13T19:55:57.877Z,93.00
2019-01-13T19:58:24.000Z,93.00
2019-01-13T20:00:50.056Z,92.80
2019-01-13T20:03:16.172Z,92.60
2019-01-13T20:05:42.212Z,92.40
2019-01-13T20:08:14.035Z,92.40
2019-01-13T20:10:40.059Z,92.30
2019-01-13T20:13:06.145Z,92.20
2019-01-13T20:15:32.173Z,92.30
2019-01-13T20:17:58.245Z,92.30
2019-01-13T20:20:24.326Z,92.20
2019-01-13T20:22:50.395Z,92.30
2019-01-13T20:25:17.207Z,92.00
2019-01-13T20:27:43.215Z,92.00
2019-01-13T20:30:12.736Z,91.90
2019-01-13T20:32:39.272Z,91.90
2019-01-13T20:35:06.279Z,91.60
2019-01-13T20:37:32.302Z,91.70
2019-01-13T20:39:58.312Z,91.40
2019-01-13T20:42:24.347Z,91.50
2019-01-13T20:44:50.359Z,91.40
2019-01-13T20:47:16.449Z,91.30
2019-01-13T20:49:42.455Z,91.50
2019-01-13T20:52:08.512Z,91.60
2019-01-13T20:54:34.633Z,91.40
2019-01-13T20:57:00.750Z,91.40
2019-01-13T20:59:26.763Z,91.30
2019-01-13T21:01:52.775Z,91.30
2019-01-13T21:04:18.815Z,91.30
2019-01-13T21:06:44.851Z,91.60
2019-01-13T21:09:12.060Z,91.20
2019-01-13T21:11:38.118Z,91.30
2019-01-13T21:14:04.136Z,91.30
2019-01-13T21:16:30.177Z,91.20
2019-01-13T21:18:56.216Z,91.20
2019-01-13T21:21:22.356Z,91.20
2019-01-13T21:23:48.460Z,91.30
2019-01-13T21:26:14.472Z,91.20
2019-01-13T21:28:40.510Z,91.10
2019-01-13T21:31:06.643Z,91.00
2019-01-13T21:33:32.701Z,90.80
2019-01-13T21:35:58.712Z,90.70
2019-01-13T21:38:24.751Z,90.60
2019-01-13T21:40:50.819Z,90.80
2019-01-13T21:43:16.855Z,90.40
2019-01-13T21:45:42.903Z,90.30
2019-01-13T21:48:08.931Z,89.80
2019-01-13T21:50:34.952Z,90.00
2019-01-13T21:53:00.980Z,90.00
2019-01-13T21:55:27.020Z,90.00
2019-01-13T21:57:53.064Z,90.00
2019-01-13T22:00:24.537Z,90.00
2019-01-13T22:02:50.548Z,90.10
2019-01-13T22:05:16.566Z,90.10
2019-01-13T22:07:42.704Z,90.20
2019-01-13T22:10:14.595Z,90.30
2019-01-13T22:12:40.637Z,90.30
2019-01-13T22:15:09.352Z,90.60
2019-01-13T22:17:35.391Z,90.90
2019-01-13T22:20:01.703Z,91.00
2019-01-13T22:22:27.707Z,90.70
2019-01-13T22:24:53.747Z,91.00
2019-01-13T22:27:19.768Z,91.20
2019-01-13T22:29:45.799Z,89.40
2019-01-13T22:32:11.831Z,88.30
2019-01-13T22:34:37.843Z,88.10
2019-01-13T22:37:03.963Z,87.10
2019-01-13T22:39:30.004Z,87.50
2019-01-13T22:41:56.020Z,86.80
2019-01-13T22:44:22.064Z,88.20
2019-01-13T22:46:49.207Z,87.00
2019-01-13T22:49:15.323Z,87.30
2019-01-13T22:51:41.424Z,86.70
2019-01-13T22:54:07.464Z,86.90
2019-01-13T22:56:33.480Z,86.20
2019-01-13T22:58:59.528Z,86.20
2019-01-13T23:01:27.023Z,86.70
2019-01-13T23:03:53.744Z,86.60
2019-01-13T23:06:19.768Z,87.10
2019-01-13T23:08:45.804Z,86.30
2019-01-13T23:11:11.817Z,86.00
2019-01-13T23:13:37.852Z,85.30
2019-01-13T23:16:03.892Z,85.90
2019-01-13T23:18:29.913Z,85.00
2019-01-13T23:20:55.947Z,84.40
2019-01-13T23:23:22.056Z,85.50
2019-01-13T23:25:48.073Z,84.70
2019-01-13T23:28:14.118Z,85.10
2019-01-13T23:30:40.135Z,85.10
2019-01-13T23:33:06.149Z,83.90
2019-01-13T23:35:32.193Z,83.10
2019-01-13T23:37:58.234Z,84.20
2019-01-13T23:40:24.255Z,84.30
2019-01-13T23:42:50.277Z,83.80
2019-01-13T23:45:16.319Z,84.20
2019-01-13T23:47:42.348Z,84.20
2019-01-13T23:50:08.410Z,83.70
2019-01-13T23:52:34.456Z,84.40
2019-01-13T23:55:00.599Z,83.90
2019-01-13T23:57:26.623Z,83.30
2019-01-13T23:59:52.664Z,83.70
